Time;durP1;ratioP1;P1;durP2;ratioP2;P2;SDS_P1;SDS_P2;PMS_P1;PMS_P2;Temp;Humidity;BMP_temperature;BMP_pressure;BME280_temperature;BME280_humidity;BME280_pressure;Samples;Min_cycle;Max_cycle;Signal;HPM_P1;HPM_P2
2022/06/12 00:00:18;;;;;;;13.20;6.72;;;563.20;2432.00;;;;;;5114848;28;20038;-78
2022/06/12 00:02:44;;;;;;;7.22;6.10;;;538.50;2406.40;;;;;;5114522;28;20027;-77
2022/06/12 00:05:12;;;;;;;10.23;5.72;;;538.50;2406.40;;;;;;5113196;28;20397;-79
2022/06/12 00:07:38;;;;;;;9.38;6.07;;;538.40;2406.40;;;;;;5113571;28;20028;-78
2022/06/12 00:10:05;;;;;;;13.02;5.50;;;538.50;2406.40;;;;;;5113372;28;20461;-78
2022/06/12 00:12:30;;;;;;;10.77;5.93;;;538.30;2406.40;;;;;;5113209;28;20031;-79
2022/06/12 00:14:56;;;;;;;8.20;6.18;;;538.40;2406.40;;;;;;5113340;28;20038;-78
2022/06/12 00:17:22;;;;;;;10.45;6.72;;;538.40;2406.40;;;;;;5114262;28;20030;-78
2022/06/12 00:19:49;;;;;;;14.82;6.80;;;538.40;2406.40;;;;;;5101127;28;20036;-78
2022/06/12 00:22:16;;;;;;;16.48;6.47;;;538.30;2406.40;;;;;;5110821;28;20427;-78
2022/06/12 00:24:42;;;;;;;6.63;5.38;;;538.40;2406.40;;;;;;5112902;28;20028;-78
2022/06/12 00:27:07;;;;;;;9.25;5.75;;;538.40;2406.40;;;;;;5105596;28;20069;-78
2022/06/12 00:29:35;;;;;;;10.55;5.70;;;538.30;2406.40;;;;;;5105849;28;20126;-78
2022/06/12 00:32:05;;;;;;;9.25;6.47;;;538.30;2406.40;;;;;;5112539;28;20034;-78
2022/06/12 00:34:36;;;;;;;14.77;7.15;;;538.20;2406.40;;;;;;5112364;28;20059;-78
2022/06/12 00:37:02;;;;;;;7.35;5.75;;;538.20;2406.40;;;;;;5098163;28;20088;-78
2022/06/12 00:39:30;;;;;;;6.75;4.57;;;538.20;2406.40;;;;;;5113915;28;20482;-78
2022/06/12 00:41:57;;;;;;;7.40;6.55;;;538.20;2406.40;;;;;;5112647;28;20070;-78
2022/06/12 00:44:31;;;;;;;6.15;5.40;;;538.10;2406.40;;;;;;5113742;28;20084;-78
2022/06/12 00:47:04;;;;;;;8.82;5.38;;;538.20;2406.40;;;;;;5106921;28;20043;-78
2022/06/12 00:49:43;;;;;;;7.47;5.97;;;538.20;2406.40;;;;;;5093126;28;20039;-77
2022/06/12 00:52:18;;;;;;;9.30;5.60;;;538.10;2406.40;;;;;;5112117;28;20393;-78
2022/06/12 00:54:49;;;;;;;8.50;6.43;;;538.10;2406.40;;;;;;5112201;28;20119;-78
2022/06/12 00:57:16;;;;;;;8.02;5.55;;;538.10;2406.40;;;;;;5113545;28;20011;-79
2022/06/12 00:59:51;;;;;;;7.88;5.82;;;538.10;2406.40;;;;;;5106479;28;20024;-78
2022/06/12 01:02:21;;;;;;;8.10;6.05;;;538.10;2406.40;;;;;;5091065;28;20055;-78
2022/06/12 01:07:40;;;;;;;10.02;6.22;;;538.10;2406.40;;;;;;5090644;28;20388;-78
2022/06/12 01:10:10;;;;;;;8.18;5.70;;;538.10;2406.40;;;;;;5091461;28;20042;-78
2022/06/12 01:12:59;;;;;;;10.88;5.85;;;538.00;2406.40;;;;;;5092733;28;20045;-78
2022/06/12 01:15:42;;;;;;;6.75;5.38;;;538.00;2406.40;;;;;;5091667;28;20101;-78
2022/06/12 01:18:11;;;;;;;8.25;6.05;;;537.90;2406.40;;;;;;5092227;28;20493;-78
2022/06/12 01:21:02;;;;;;;10.27;6.60;;;537.90;2406.40;;;;;;5088505;28;20465;-78
2022/06/12 01:23:27;;;;;;;11.70;6.43;;;537.80;2406.40;;;;;;5006386;28;20082;-78
2022/06/12 01:26:26;;;;;;;11.73;5.93;;;537.80;2406.40;;;;;;4993688;28;20073;-78
2022/06/12 01:29:14;;;;;;;25.95;7.72;;;537.80;2406.40;;;;;;5002049;28;20436;-79
2022/06/12 01:32:21;;;;;;;8.50;6.43;;;537.80;2406.40;;;;;;4917203;29;20056;-78
2022/06/12 01:34:58;;;;;;;9.63;6.38;;;537.80;2406.40;;;;;;4932775;29;20119;-78
2022/06/12 01:38:10;;;;;;;8.10;6.53;;;537.80;2406.40;;;;;;4933074;29;20043;-78
2022/06/12 01:41:08;;;;;;;7.30;5.70;;;537.70;2406.40;;;;;;4895391;29;20048;-78
2022/06/12 01:43:52;;;;;;;8.50;6.35;;;537.80;2406.40;;;;;;4897388;29;20028;-78
2022/06/12 01:46:26;;;;;;;7.35;5.85;;;537.80;2406.40;;;;;;4894369;29;20116;-78
2022/06/12 01:49:14;;;;;;;12.88;6.97;;;537.80;2406.40;;;;;;4913654;29;20060;-78
2022/06/12 01:51:52;;;;;;;11.82;6.65;;;537.70;2406.40;;;;;;4913693;29;20100;-78
2022/06/12 01:54:33;;;;;;;9.55;7.35;;;537.70;2406.40;;;;;;4910897;29;20036;-78
2022/06/12 01:57:16;;;;;;;9.93;6.53;;;537.60;2406.40;;;;;;4911152;29;20483;-78
2022/06/12 01:59:45;;;;;;;13.40;6.38;;;537.70;2406.40;;;;;;4919502;28;20031;-78
2022/06/12 02:02:40;;;;;;;7.60;6.78;;;537.60;2406.40;;;;;;4960568;28;20038;-78
2022/06/12 02:05:25;;;;;;;11.90;6.32;;;537.60;2406.40;;;;;;4944560;28;20082;-78
2022/06/12 02:07:57;;;;;;;7.97;6.75;;;512.90;2380.80;;;;;;4958709;28;20706;-79
2022/06/12 02:10:42;;;;;;;7.75;6.15;;;537.60;2406.40;;;;;;4954486;28;20045;-78
2022/06/12 02:13:14;;;;;;;11.48;6.95;;;512.90;2380.80;;;;;;5008305;28;20038;-78
2022/06/12 02:15:55;;;;;;;6.97;6.20;;;512.90;2380.80;;;;;;5089327;28;20027;-78
2022/06/12 02:18:44;;;;;;;12.73;6.70;;;512.90;2380.80;;;;;;5089327;28;20043;-77
2022/06/12 02:21:09;;;;;;;9.75;7.50;;;512.90;2380.80;;;;;;5088806;28;20020;-78
2022/06/12 02:23:51;;;;;;;10.45;6.47;;;512.90;2380.80;;;;;;5091796;28;20434;-77
2022/06/12 02:26:21;;;;;;;12.43;7.05;;;512.90;2380.80;;;;;;5090643;28;20473;-78
2022/06/12 02:28:55;;;;;;;10.38;7.03;;;512.80;2380.80;;;;;;5091778;28;20401;-78
2022/06/12 02:31:28;;;;;;;8.13;7.28;;;512.90;2380.80;;;;;;5089059;28;20082;-78
2022/06/12 02:34:06;;;;;;;9.68;7.47;;;512.70;2380.80;;;;;;5091546;28;20060;-77
2022/06/12 02:36:41;;;;;;;10.50;7.50;;;512.80;2380.80;;;;;;5090477;28;20028;-78
2022/06/12 02:39:23;;;;;;;10.73;7.10;;;512.70;2380.80;;;;;;5089844;28;20042;-78
2022/06/12 02:41:57;;;;;;;18.33;7.70;;;512.60;2380.80;;;;;;5089978;28;20028;-78
2022/06/12 02:44:28;;;;;;;7.90;7.10;;;512.50;2380.80;;;;;;5087611;28;20094;-78
2022/06/12 02:46:58;;;;;;;8.73;6.95;;;512.40;2380.80;;;;;;5091841;28;20081;-78
2022/06/12 02:49:24;;;;;;;10.82;6.55;;;512.40;2380.80;;;;;;5087674;28;20361;-78
2022/06/12 02:52:16;;;;;;;8.05;6.22;;;512.30;2380.80;;;;;;5090590;28;20024;-78
2022/06/12 02:55:22;;;;;;;8.77;6.97;;;512.30;2380.80;;;;;;5049604;28;20028;-78
2022/06/12 02:58:19;;;;;;;10.13;8.10;;;512.30;2380.80;;;;;;5089694;28;20070;-78
2022/06/12 03:00:50;;;;;;;10.23;7.00;;;512.20;2380.80;;;;;;5091574;28;20105;-78
2022/06/12 03:03:26;;;;;;;10.57;7.47;;;512.30;2380.80;;;;;;5093939;28;21488;-78
2022/06/12 03:05:57;;;;;;;10.20;7.22;;;512.30;2380.80;;;;;;5094156;28;20027;-78
2022/06/12 03:08:28;;;;;;;10.40;7.00;;;512.40;2380.80;;;;;;5091191;28;20050;-78
2022/06/12 03:11:05;;;;;;;10.32;7.60;;;512.30;2380.80;;;;;;5093827;28;20023;-78
2022/06/12 03:13:32;;;;;;;8.27;7.15;;;512.30;2380.80;;;;;;5092384;28;20093;-78
2022/06/12 03:16:11;;;;;;;9.23;7.43;;;512.20;2380.80;;;;;;5093630;28;20448;-78
2022/06/12 03:18:43;;;;;;;9.93;7.15;;;512.30;2380.80;;;;;;5093454;28;20028;-78
2022/06/12 03:21:35;;;;;;;10.00;7.15;;;512.30;2380.80;;;;;;5094482;28;20106;-78
2022/06/12 03:24:06;;;;;;;8.55;6.80;;;512.30;2380.80;;;;;;5049313;28;20029;-79
2022/06/12 03:26:40;;;;;;;8.70;6.78;;;512.30;2380.80;;;;;;5052751;28;20036;-78
2022/06/12 03:29:23;;;;;;;14.15;7.43;;;512.30;2380.80;;;;;;5049961;28;20041;-78
2022/06/12 03:32:02;;;;;;;9.80;7.43;;;512.30;2380.80;;;;;;5035224;28;20021;-78
2022/06/12 03:34:51;;;;;;;8.18;6.85;;;512.30;2380.80;;;;;;5035430;28;20037;-78
2022/06/12 03:37:35;;;;;;;8.40;6.65;;;512.40;2380.80;;;;;;5000540;28;20718;-78
2022/06/12 03:40:25;;;;;;;7.70;6.70;;;512.40;2380.80;;;;;;4976390;28;20111;-78
2022/06/12 03:43:09;;;;;;;9.65;6.57;;;512.40;2380.80;;;;;;5003489;28;20041;-78
2022/06/12 03:45:54;;;;;;;7.88;6.68;;;512.20;2380.80;;;;;;4999911;28;20500;-78
2022/06/12 03:48:22;;;;;;;9.15;6.88;;;512.20;2380.80;;;;;;4992742;28;20528;-78
2022/06/12 03:51:08;;;;;;;8.88;6.40;;;512.20;2380.80;;;;;;4992334;28;20040;-78
2022/06/12 03:53:49;;;;;;;8.45;6.93;;;512.30;2380.80;;;;;;4998963;28;20109;-77
2022/06/12 03:59:34;;;;;;;10.35;7.15;;;512.30;2380.80;;;;;;4992843;28;20400;-78
2022/06/12 04:02:03;;;;;;;8.47;6.90;;;512.30;2380.80;;;;;;5026698;28;20060;-78
2022/06/12 04:04:32;;;;;;;8.85;6.93;;;512.30;2380.80;;;;;;5034862;28;20025;-78
2022/06/12 04:07:01;;;;;;;7.68;5.95;;;512.40;2380.80;;;;;;5051819;28;20037;-78
2022/06/12 04:09:31;;;;;;;13.07;6.03;;;512.30;2380.80;;;;;;5048150;28;20024;-77
2022/06/12 04:12:04;;;;;;;11.10;6.85;;;512.40;2380.80;;;;;;5051576;28;20060;-78
2022/06/12 04:14:40;;;;;;;8.40;6.80;;;512.40;2380.80;;;;;;5073796;28;20047;-78
2022/06/12 04:17:06;;;;;;;11.32;6.88;;;512.40;2380.80;;;;;;5091161;28;20080;-78
2022/06/12 04:19:58;;;;;;;9.45;7.05;;;512.30;2380.80;;;;;;5089665;28;20028;-78
2022/06/12 04:22:32;;;;;;;12.63;6.93;;;512.40;2380.80;;;;;;5093031;28;20065;-78
2022/06/12 04:25:07;;;;;;;8.18;6.40;;;512.50;2380.80;;;;;;5093626;28;20016;-78
2022/06/12 04:27:40;;;;;;;8.30;6.13;;;512.60;2380.80;;;;;;5092068;28;20020;-78
2022/06/12 04:30:27;;;;;;;7.38;5.78;;;512.70;2380.80;;;;;;5089600;28;20028;-78
2022/06/12 04:33:15;;;;;;;10.13;6.40;;;512.70;2380.80;;;;;;5090492;28;20362;-80
2022/06/12 04:35:49;;;;;;;10.13;6.28;;;512.70;2380.80;;;;;;5089114;28;20461;-80
2022/06/12 04:38:14;;;;;;;8.63;6.75;;;512.80;2380.80;;;;;;5090853;28;20085;-78
2022/06/12 04:40:43;;;;;;;8.98;6.25;;;512.70;2380.80;;;;;;5092027;28;20975;-78
2022/06/12 04:43:09;;;;;;;8.48;5.88;;;512.70;2380.80;;;;;;5089951;28;20024;-78
2022/06/12 04:45:35;;;;;;;8.35;6.03;;;512.90;2380.80;;;;;;5093265;28;20027;-78
2022/06/12 04:48:03;;;;;;;9.65;6.25;;;512.90;2380.80;;;;;;5093371;28;20028;-79
2022/06/12 04:50:29;;;;;;;8.82;6.20;;;512.90;2380.80;;;;;;5089090;28;20028;-79
2022/06/12 04:52:54;;;;;;;8.00;5.70;;;512.90;2380.80;;;;;;5091893;28;20043;-78
2022/06/12 04:55:20;;;;;;;10.55;5.95;;;537.60;2406.40;;;;;;5091750;28;20103;-78
2022/06/12 04:57:46;;;;;;;7.57;5.90;;;512.90;2380.80;;;;;;5088733;28;20028;-78
2022/06/12 05:00:12;;;;;;;9.95;5.72;;;537.80;2406.40;;;;;;5092993;28;20021;-78
2022/06/12 05:02:38;;;;;;;8.85;6.22;;;537.70;2406.40;;;;;;5091778;28;20473;-79
2022/06/12 05:05:04;;;;;;;10.18;5.93;;;537.80;2406.40;;;;;;5092715;28;20031;-80
2022/06/12 05:07:30;;;;;;;10.18;5.40;;;537.80;2406.40;;;;;;5091487;28;20020;-79
2022/06/12 05:09:56;;;;;;;11.95;6.07;;;537.90;2406.40;;;;;;5091530;28;20485;-80
2022/06/12 05:12:21;;;;;;;8.13;5.97;;;537.90;2406.40;;;;;;5091403;28;20024;-79
2022/06/12 05:14:47;;;;;;;7.63;5.53;;;538.00;2406.40;;;;;;5089000;28;20028;-79
2022/06/12 05:17:16;;;;;;;7.35;5.70;;;538.10;2406.40;;;;;;5091574;28;20023;-78
2022/06/12 05:19:44;;;;;;;9.98;6.18;;;538.20;2406.40;;;;;;5092606;28;20103;-79
2022/06/12 05:22:11;;;;;;;8.82;5.60;;;538.20;2406.40;;;;;;5089007;28;20382;-81
2022/06/12 05:24:38;;;;;;;8.70;5.50;;;538.30;2406.40;;;;;;5091998;28;20044;-79
2022/06/12 05:27:05;;;;;;;12.90;6.22;;;538.40;2406.40;;;;;;5092916;28;20550;-80
2022/06/12 05:29:34;;;;;;;8.38;5.82;;;538.50;2406.40;;;;;;5091668;28;20085;-79
2022/06/12 05:32:01;;;;;;;7.63;5.10;;;538.50;2406.40;;;;;;5091573;28;20020;-80
2022/06/12 05:34:27;;;;;;;8.95;5.22;;;563.20;2432.00;;;;;;5091547;28;20024;-81
2022/06/12 05:36:54;;;;;;;8.02;5.43;;;563.20;2432.00;;;;;;5091337;28;20095;-78
2022/06/12 05:39:20;;;;;;;10.70;5.60;;;563.30;2432.00;;;;;;5090842;28;20024;-78
2022/06/12 05:41:47;;;;;;;9.35;5.53;;;563.30;2432.00;;;;;;5091470;28;20048;-80
2022/06/12 05:44:13;;;;;;;9.30;5.45;;;563.30;2432.00;;;;;;5090185;28;20126;-78
2022/06/12 05:46:39;;;;;;;6.57;5.35;;;563.40;2432.00;;;;;;5090960;28;20107;-78
2022/06/12 05:49:06;;;;;;;7.75;5.78;;;563.40;2432.00;;;;;;5092201;28;20100;-78
2022/06/12 05:51:32;;;;;;;7.65;5.82;;;563.50;2432.00;;;;;;5092289;28;20485;-78
2022/06/12 05:53:59;;;;;;;7.32;4.93;;;563.60;2432.00;;;;;;5092018;28;20085;-78
2022/06/12 05:56:27;;;;;;;11.27;5.13;;;563.60;2432.00;;;;;;5090505;28;20036;-78
2022/06/12 05:58:53;;;;;;;8.45;5.35;;;563.70;2432.00;;;;;;5091016;28;20020;-81
2022/06/12 06:01:20;;;;;;;8.63;5.35;;;563.90;2432.00;;;;;;5090950;28;20046;-79
2022/06/12 06:03:48;;;;;;;12.32;5.40;;;563.90;2432.00;;;;;;5092167;28;20023;-79
2022/06/12 06:06:26;;;;;;;8.65;5.18;;;564.00;2432.00;;;;;;5090637;28;20031;-79
2022/06/12 06:08:52;;;;;;;7.50;5.35;;;564.00;2432.00;;;;;;5090009;28;20048;-80
2022/06/12 06:11:19;;;;;;;10.15;4.70;;;564.10;2432.00;;;;;;5090501;28;20056;-80
2022/06/12 06:13:46;;;;;;;7.32;5.90;;;588.80;2432.00;;;;;;5092211;28;20125;-78
2022/06/12 06:16:11;;;;;;;5.72;4.45;;;588.80;2432.00;;;;;;5089271;28;20016;-78
2022/06/12 06:18:40;;;;;;;8.00;4.75;;;588.80;2432.00;;;;;;5091926;28;20077;-78
2022/06/12 06:21:11;;;;;;;15.20;6.25;;;588.90;2432.00;;;;;;5090673;28;20478;-79
2022/06/12 06:23:38;;;;;;;6.32;4.80;;;589.00;2432.00;;;;;;5091884;28;20428;-79
2022/06/12 06:26:04;;;;;;;6.68;4.55;;;589.10;2432.00;;;;;;5090900;28;20088;-79
2022/06/12 06:28:30;;;;;;;7.18;4.75;;;589.20;2432.00;;;;;;5090418;28;20070;-79
2022/06/12 06:30:56;;;;;;;16.98;5.13;;;589.20;2432.00;;;;;;5091799;28;20478;-78
2022/06/12 06:33:23;;;;;;;9.50;5.45;;;589.20;2432.00;;;;;;5092833;28;20040;-79
2022/06/12 06:35:49;;;;;;;8.32;5.13;;;589.30;2432.00;;;;;;5095646;28;20016;-79
2022/06/12 06:38:15;;;;;;;7.05;4.88;;;589.40;2432.00;;;;;;5094147;28;20036;-78
2022/06/12 06:40:42;;;;;;;10.63;5.25;;;589.50;2432.00;;;;;;5094068;28;20074;-79
2022/06/12 06:43:09;;;;;;;7.75;5.30;;;589.50;2432.00;;;;;;5094578;28;20020;-78
2022/06/12 06:48:21;;;;;;;11.35;5.15;;;589.60;2432.00;;;;;;5094255;28;20549;-78
2022/06/12 06:50:47;;;;;;;9.13;5.50;;;589.60;2432.00;;;;;;5095507;28;20032;-77
2022/06/12 06:53:13;;;;;;;10.18;4.80;;;589.70;2432.00;;;;;;5095314;28;20031;-77
2022/06/12 06:55:40;;;;;;;5.88;4.47;;;614.40;2432.00;;;;;;5095515;28;20062;-76
2022/06/12 06:58:09;;;;;;;6.78;4.97;;;614.40;2432.00;;;;;;5095250;28;20012;-75
2022/06/12 07:00:36;;;;;;;6.05;4.85;;;614.50;2432.00;;;;;;5091266;28;20032;-75
2022/06/12 07:03:02;;;;;;;7.10;4.47;;;614.60;2432.00;;;;;;5095110;28;20035;-75
2022/06/12 07:05:29;;;;;;;8.23;4.50;;;614.70;2432.00;;;;;;5095205;28;20032;-76
2022/06/12 07:07:55;;;;;;;5.75;4.20;;;614.70;2432.00;;;;;;5094947;28;20020;-76
2022/06/12 07:10:24;;;;;;;6.60;4.70;;;614.80;2432.00;;;;;;5095053;28;20031;-77
2022/06/12 07:12:52;;;;;;;9.60;4.70;;;614.90;2432.00;;;;;;5097970;28;20122;-77
2022/06/12 07:15:19;;;;;;;6.45;4.63;;;614.90;2432.00;;;;;;5115696;27;20039;-76
2022/06/12 07:17:45;;;;;;;8.23;4.63;;;615.00;2432.00;;;;;;5115600;28;20028;-76
2022/06/12 07:20:14;;;;;;;11.05;4.30;;;615.20;2432.00;;;;;;5115786;28;20093;-76
2022/06/12 07:22:39;;;;;;;8.38;4.78;;;615.30;2406.40;;;;;;5101549;28;20043;-76
2022/06/12 07:25:07;;;;;;;7.15;4.25;;;640.00;2432.00;;;;;;5109348;28;20055;-76
2022/06/12 07:27:33;;;;;;;7.05;4.30;;;640.20;2406.40;;;;;;5107592;28;20012;-76
2022/06/12 07:29:59;;;;;;;7.13;4.78;;;640.20;2406.40;;;;;;5115218;28;20076;-76
2022/06/12 07:32:25;;;;;;;38.65;7.43;;;640.20;2252.80;;;;;;5105003;28;20393;-77
2022/06/12 07:34:53;;;;;;;12.82;5.18;;;640.40;2355.20;;;;;;5111455;28;20031;-77
2022/06/12 07:37:20;;;;;;;8.43;4.32;;;640.50;2252.80;;;;;;5106459;28;20016;-74
2022/06/12 07:39:46;;;;;;;6.45;4.57;;;640.50;2176.00;;;;;;5108194;28;20040;-75
2022/06/12 07:42:11;;;;;;;11.45;4.03;;;640.60;2201.60;;;;;;5114928;28;20032;-75
2022/06/12 07:44:39;;;;;;;9.07;4.50;;;640.60;2227.20;;;;;;5114005;28;20119;-74
2022/06/12 07:47:05;;;;;;;5.82;4.20;;;640.70;2176.00;;;;;;5094446;28;20013;-75
2022/06/12 07:49:32;;;;;;;7.18;3.95;;;640.70;2124.80;;;;;;5109322;28;20036;-76
2022/06/12 07:52:01;;;;;;;6.80;3.88;;;640.90;2176.00;;;;;;5113448;28;20396;-79
2022/06/12 07:54:30;;;;;;;7.13;4.20;;;665.70;2252.80;;;;;;5114872;28;20023;-76
2022/06/12 07:56:57;;;;;;;6.30;3.63;;;665.70;2073.60;;;;;;5109619;28;20012;-76
2022/06/12 07:59:23;;;;;;;6.95;3.67;;;665.90;2176.00;;;;;;5104357;28;20096;-77
2022/06/12 08:01:50;;;;;;;6.65;4.13;;;666.00;2150.40;;;;;;5114462;28;20456;-73
2022/06/12 08:04:16;;;;;;;6.22;3.78;;;666.00;2124.80;;;;;;5113370;28;20023;-78
2022/06/12 08:06:42;;;;;;;19.27;4.22;;;666.20;2099.20;;;;;;5113468;28;20024;-80
2022/06/12 08:09:10;;;;;;;5.97;3.83;;;666.20;2099.20;;;;;;5103080;28;20020;-80
2022/06/12 08:11:38;;;;;;;5.78;3.47;;;666.20;2099.20;;;;;;5090030;28;20047;-77
2022/06/12 08:14:04;;;;;;;6.55;4.15;;;666.30;2073.60;;;;;;5092511;28;20032;-76
2022/06/12 08:16:30;;;;;;;5.82;3.67;;;666.30;2022.40;;;;;;5092077;28;20501;-77
2022/06/12 08:18:56;;;;;;;5.38;3.83;;;666.50;2124.80;;;;;;5093853;28;20035;-77
2022/06/12 08:21:22;;;;;;;7.78;3.88;;;666.50;2048.00;;;;;;5092268;28;20036;-77
2022/06/12 08:23:54;;;;;;;4.80;3.70;;;666.50;2022.40;;;;;;5092849;28;20496;-77
2022/06/12 08:26:30;;;;;;;5.93;3.60;;;691.20;2022.40;;;;;;5074817;28;20554;-77
2022/06/12 08:29:08;;;;;;;5.65;4.15;;;691.20;1996.80;;;;;;5101352;28;20031;-77
2022/06/12 08:31:50;;;;;;;6.03;4.10;;;691.20;1971.20;;;;;;5081346;28;20059;-77
2022/06/12 08:34:32;;;;;;;9.75;4.28;;;691.30;2124.80;;;;;;5108980;28;20036;-77
2022/06/12 08:37:01;;;;;;;6.28;3.78;;;691.40;1996.80;;;;;;5104540;28;20077;-77
2022/06/12 08:39:28;;;;;;;5.78;3.80;;;691.40;1971.20;;;;;;5108706;28;20031;-77
2022/06/12 08:42:19;;;;;;;10.63;4.22;;;691.50;1996.80;;;;;;5106553;28;20069;-77
2022/06/12 08:45:02;;;;;;;7.50;4.25;;;691.60;1996.80;;;;;;5092203;28;20078;-78
2022/06/12 08:47:44;;;;;;;7.68;3.60;;;691.80;1945.60;;;;;;5093635;28;20047;-77
2022/06/12 08:50:37;;;;;;;11.65;4.30;;;691.80;1971.20;;;;;;5098868;28;20033;-77
2022/06/12 08:53:17;;;;;;;6.95;3.95;;;691.90;1971.20;;;;;;5111912;28;20038;-77
2022/06/12 08:56:10;;;;;;;9.50;4.28;;;691.90;1894.40;;;;;;5101413;28;20027;-78
2022/06/12 08:59:12;;;;;;;5.13;3.88;;;692.00;1945.60;;;;;;5017235;28;20036;-77
2022/06/12 09:01:41;;;;;;;11.65;4.05;;;692.10;1920.00;;;;;;4958666;28;20525;-77
2022/06/12 09:04:10;;;;;;;6.28;3.75;;;716.80;1945.60;;;;;;4955792;28;20030;-77
2022/06/12 09:06:55;;;;;;;6.72;3.58;;;716.80;1868.80;;;;;;4971962;28;20150;-77
2022/06/12 09:09:29;;;;;;;7.63;3.75;;;716.80;1971.20;;;;;;4963165;28;20043;-77
2022/06/12 09:12:05;;;;;;;5.70;2.95;;;716.80;1868.80;;;;;;4933226;29;20040;-77
2022/06/12 09:14:36;;;;;;;;;;;716.80;1868.80;;;;;;4970643;28;20109;-77
2022/06/12 09:17:12;;;;;;;7.85;4.35;;;717.00;1868.80;;;;;;4971830;28;19914;-77
2022/06/12 09:19:39;;;;;;;8.05;3.50;;;717.10;1792.00;;;;;;4955515;28;20039;-76
2022/06/12 09:22:37;;;;;;;9.88;4.40;;;717.00;1766.40;;;;;;4972071;28;20039;-77
2022/06/12 09:25:19;;;;;;;6.28;3.78;;;717.20;1843.20;;;;;;4868373;29;20033;-77
2022/06/12 09:27:44;;;;;;;4.50;3.17;;;717.30;1740.80;;;;;;4908804;29;20032;-77
2022/06/12 09:30:17;;;;;;;5.70;3.70;;;717.40;1715.20;;;;;;4903375;29;20171;-76
2022/06/12 09:33:02;;;;;;;7.30;4.35;;;717.50;1715.20;;;;;;4898480;29;20060;-76
2022/06/12 09:35:39;;;;;;;5.45;3.45;;;717.70;1689.60;;;;;;4934253;28;20035;-77
2022/06/12 09:38:33;;;;;;;8.60;3.90;;;742.40;1715.20;;;;;;5009051;28;20163;-77
2022/06/12 09:41:22;;;;;;;6.47;3.50;;;742.60;1715.20;;;;;;5033377;28;20044;-76
2022/06/12 09:44:10;;;;;;;6.30;3.55;;;742.70;1664.00;;;;;;5033588;28;20055;-77
2022/06/12 09:46:40;;;;;;;9.73;3.55;;;742.90;1689.60;;;;;;5038645;28;20029;-76
2022/06/12 09:49:25;;;;;;;8.98;3.22;;;742.90;1612.80;;;;;;5027611;28;20030;-77
2022/06/12 09:52:02;;;;;;;4.05;2.90;;;742.90;1638.40;;;;;;5007777;28;20033;-77
2022/06/12 09:54:56;;;;;;;5.57;3.03;;;743.10;1638.40;;;;;;5030841;28;20049;-77
2022/06/12 09:58:11;;;;;;;6.65;3.47;;;743.10;1587.20;;;;;;5049887;28;20035;-78
2022/06/12 10:00:40;;;;;;;5.65;2.67;;;743.30;1587.20;;;;;;4981081;28;20041;-77
2022/06/12 10:03:24;;;;;;;8.10;2.90;;;768.00;1587.20;;;;;;5022134;28;20030;-77
2022/06/12 10:06:24;;;;;;;10.05;3.55;;;768.10;1587.20;;;;;;5032887;28;20127;-77
2022/06/12 10:08:53;;;;;;;4.70;2.58;;;768.50;1561.60;;;;;;5049042;28;20017;-76
2022/06/12 10:11:31;;;;;;;4.95;3.08;;;768.40;1484.80;;;;;;5026545;28;20038;-76
2022/06/12 10:14:07;;;;;;;5.72;3.00;;;768.50;1484.80;;;;;;5029325;28;20095;-77
2022/06/12 10:16:57;;;;;;;9.55;3.25;;;768.50;1510.40;;;;;;5026901;28;20111;-77
2022/06/12 10:19:54;;;;;;;4.07;3.20;;;768.60;1484.80;;;;;;5012773;28;20034;-77
2022/06/12 10:22:27;;;;;;;8.85;3.47;;;768.70;1484.80;;;;;;5028238;28;20470;-77
2022/06/12 10:24:59;;;;;;;5.00;3.10;;;768.80;1459.20;;;;;;5046760;28;20040;-77
2022/06/12 10:27:26;;;;;;;9.20;3.25;;;793.60;1484.80;;;;;;5039747;28;20022;-78
2022/06/12 10:30:00;;;;;;;7.85;3.25;;;793.70;1510.40;;;;;;5043816;28;20483;-77
2022/06/12 10:32:48;;;;;;;4.40;3.13;;;793.70;1484.80;;;;;;5012783;28;20528;-78
2022/06/12 10:35:15;;;;;;;4.85;3.47;;;793.60;1484.80;;;;;;5026512;28;20096;-77
2022/06/12 10:37:41;;;;;;;4.35;2.95;;;793.80;1484.80;;;;;;5094164;28;20040;-77
2022/06/12 10:40:17;;;;;;;4.03;3.33;;;793.80;1484.80;;;;;;5108465;28;20043;-77
2022/06/12 10:42:57;;;;;;;6.53;3.58;;;794.20;1484.80;;;;;;5087581;28;20195;-77
2022/06/12 10:45:26;;;;;;;7.18;3.88;;;768.70;1459.20;;;;;;5089178;28;20016;-77
2022/06/12 10:47:54;;;;;;;5.35;3.40;;;768.90;1459.20;;;;;;5090029;28;20080;-76
2022/06/12 10:50:31;;;;;;;4.53;3.40;;;768.60;1510.40;;;;;;5091794;28;20103;-77
2022/06/12 10:52:59;;;;;;;8.10;3.20;;;768.20;1510.40;;;;;;5104479;28;20093;-77
2022/06/12 10:56:04;;;;;;;6.85;3.45;;;768.50;1510.40;;;;;;5091542;28;20024;-78
2022/06/12 10:58:49;;;;;;;6.28;3.17;;;768.50;1484.80;;;;;;5088374;28;20040;-77
2022/06/12 11:01:42;;;;;;;4.82;2.70;;;768.90;1484.80;;;;;;5089816;28;20077;-77
2022/06/12 11:04:14;;;;;;;6.32;3.28;;;793.70;1510.40;;;;;;5089554;28;20060;-77
2022/06/12 11:06:47;;;;;;;3.92;3.20;;;794.00;1459.20;;;;;;5087963;28;20043;-77
2022/06/12 11:09:33;;;;;;;5.32;3.20;;;794.20;1459.20;;;;;;5091319;28;20123;-76
2022/06/12 11:12:13;;;;;;;4.63;3.00;;;;;;;;;;5088854;28;20100;-76
2022/06/12 11:14:58;;;;;;;4.97;3.28;;;819.30;1382.40;;;;;;5089374;28;20095;-78
2022/06/12 11:18:14;;;;;;;3.65;2.78;;;819.40;1382.40;;;;;;5090163;28;20043;-80
2022/06/12 11:21:15;;;;;;;4.33;3.43;;;819.30;1408.00;;;;;;5093042;28;20469;-84
2022/06/12 11:23:58;;;;;;;4.85;2.85;;;819.40;1382.40;;;;;;5010705;28;20176;-78
2022/06/12 11:26:30;;;;;;;8.05;3.50;;;819.40;1382.40;;;;;;5013313;28;20113;-81
2022/06/12 11:29:01;;;;;;;5.88;3.35;;;794.50;1382.40;;;;;;4999324;28;20068;-77
2022/06/12 11:31:49;;;;;;;8.07;3.10;;;819.40;1382.40;;;;;;5033286;28;20040;-78
2022/06/12 11:34:52;;;;;;;4.18;3.20;;;819.40;1356.80;;;;;;5012106;28;20068;-81
2022/06/12 11:37:55;;;;;;;3.90;2.95;;;819.20;1382.40;;;;;;5019006;28;20034;-80
2022/06/12 11:40:46;;;;;;;11.05;3.15;;;819.30;1331.20;;;;;;5003334;28;20041;-80
2022/06/12 11:43:35;;;;;;;6.32;3.08;;;819.30;1331.20;;;;;;5001538;28;20033;-81
2022/06/12 11:46:22;;;;;;;3.75;2.88;;;819.40;1382.40;;;;;;5026539;28;20026;-79
2022/06/12 11:48:59;;;;;;;5.72;3.10;;;819.60;1331.20;;;;;;5021309;28;20037;-78
2022/06/12 11:51:47;;;;;;;3.92;2.80;;;819.70;1331.20;;;;;;5015827;28;20112;-77
2022/06/12 11:54:34;;;;;;;7.32;3.20;;;819.40;1382.40;;;;;;5032354;28;20550;-82
2022/06/12 11:57:20;;;;;;;3.78;2.90;;;819.60;1356.80;;;;;;5026622;28;20606;-78
2022/06/12 11:59:53;;;;;;;5.25;2.92;;;819.60;1356.80;;;;;;5060646;28;20047;-79
2022/06/12 12:02:25;;;;;;;4.82;2.38;;;819.70;1356.80;;;;;;5105838;28;20170;-81
2022/06/12 12:05:06;;;;;;;5.80;2.90;;;819.60;1331.20;;;;;;5109188;28;20020;-79
2022/06/12 12:07:40;;;;;;;4.28;2.70;;;794.40;1331.20;;;;;;5105531;28;20028;-79
2022/06/12 12:10:12;;;;;;;7.97;3.10;;;794.40;1356.80;;;;;;5094049;28;20020;-79
2022/06/12 12:12:42;;;;;;;7.18;3.03;;;819.40;1356.80;;;;;;5091930;28;20020;-78
2022/06/12 12:15:32;;;;;;;6.85;3.03;;;819.70;1305.60;;;;;;5094159;28;20024;-81
2022/06/12 12:18:00;;;;;;;6.10;3.08;;;794.50;1331.20;;;;;;5091972;28;20431;-79
2022/06/12 12:20:40;;;;;;;4.20;3.03;;;794.20;1356.80;;;;;;5094211;28;20016;-80
2022/06/12 12:23:33;;;;;;;4.95;3.10;;;819.20;1331.20;;;;;;5093012;28;20477;-78
2022/06/12 12:26:20;;;;;;;11.88;3.80;;;819.60;1331.20;;;;;;5090101;28;20119;-78
2022/06/12 12:28:57;;;;;;;9.23;3.25;;;819.80;1280.00;;;;;;5091493;28;20107;-80
2022/06/12 12:31:24;;;;;;;4.30;3.28;;;819.80;1280.00;;;;;;5090294;28;20393;-80
2022/06/12 12:33:53;;;;;;;6.20;3.10;;;820.00;1280.00;;;;;;5093355;28;20101;-77
2022/06/12 12:42:06;;;;;;;6.15;2.92;;;820.10;1254.40;;;;;;5092514;28;20071;-78
2022/06/12 12:44:38;;;;;;;4.95;3.25;;;844.80;1280.00;;;;;;5103619;28;20068;-79
2022/06/12 12:47:21;;;;;;;6.90;3.42;;;844.80;1280.00;;;;;;5105928;28;20050;-79
2022/06/12 12:49:47;;;;;;;7.88;2.85;;;845.00;1254.40;;;;;;5108151;28;20054;-79
2022/06/12 12:52:21;;;;;;;6.65;3.08;;;845.10;1254.40;;;;;;5093659;28;20020;-78
2022/06/12 12:54:51;;;;;;;6.85;3.25;;;844.80;1280.00;;;;;;5095199;28;20067;-82
2022/06/12 12:57:21;;;;;;;5.15;3.58;;;845.00;1228.80;;;;;;5114337;28;20088;-80
2022/06/12 12:59:52;;;;;;;7.85;2.90;;;845.10;1254.40;;;;;;5114206;28;20035;-81
2022/06/12 13:02:29;;;;;;;7.25;3.85;;;844.80;1280.00;;;;;;5106459;28;20031;-81
2022/06/12 13:05:32;;;;;;;4.93;3.20;;;845.00;1203.20;;;;;;5107220;28;20020;-81
2022/06/12 13:08:15;;;;;;;4.68;3.22;;;844.80;1228.80;;;;;;5014361;28;20065;-81